createdAt,value
2023-01-27T00:02:14.395Z,4.90
2023-01-27T00:07:16.220Z,4.90
2023-01-27T00:12:41.806Z,4.90
2023-01-27T00:17:43.806Z,4.90
2023-01-27T00:23:04.058Z,4.90
2023-01-27T00:28:05.947Z,4.90
2023-01-27T00:33:27.426Z,4.90
2023-01-27T00:38:31.070Z,4.90
2023-01-27T00:43:32.983Z,4.90
2023-01-27T00:48:35.861Z,4.90
2023-01-27T00:53:37.740Z,4.80
2023-01-27T00:58:39.761Z,5.00
2023-01-27T01:03:42.342Z,4.90
2023-01-27T01:08:44.441Z,5.00
2023-01-27T01:13:48.789Z,4.90
2023-01-27T01:18:50.640Z,5.10
2023-01-27T01:23:52.462Z,4.90
2023-01-27T01:28:54.225Z,4.90
2023-01-27T01:33:56.003Z,4.90
2023-01-27T01:38:58.169Z,4.80
2023-01-27T01:44:18.330Z,4.90
2023-01-27T01:49:48.198Z,4.90
2023-01-27T01:54:55.050Z,4.80
2023-01-27T02:00:03.876Z,4.80
2023-01-27T02:05:14.433Z,4.80
2023-01-27T02:10:16.504Z,4.80
2023-01-27T02:15:19.087Z,4.80
2023-01-27T02:20:34.377Z,4.70
2023-01-27T02:25:56.215Z,4.70
2023-01-27T02:30:58.705Z,4.70
2023-01-27T02:36:11.031Z,4.70
2023-01-27T02:41:28.128Z,4.70
2023-01-27T02:46:30.476Z,4.70
2023-01-27T02:51:32.462Z,4.70
2023-01-27T02:56:34.249Z,4.60
2023-01-27T03:01:36.112Z,4.60
2023-01-27T03:06:40.943Z,4.60
2023-01-27T03:12:01.471Z,4.60
2023-01-27T03:17:22.004Z,4.60
2023-01-27T03:22:23.890Z,4.50
2023-01-27T03:27:25.727Z,4.50
2023-01-27T03:32:30.281Z,4.50
2023-01-27T03:37:51.288Z,4.50
2023-01-27T03:43:11.980Z,4.40
2023-01-27T03:48:14.321Z,4.40
2023-01-27T03:53:16.114Z,4.40
2023-01-27T03:58:22.341Z,4.30
2023-01-27T04:03:46.644Z,4.20
2023-01-27T04:08:48.468Z,4.30
2023-01-27T04:13:50.468Z,4.20
2023-01-27T04:18:52.282Z,4.20
2023-01-27T04:23:54.289Z,4.20
2023-01-27T04:28:56.149Z,4.20
2023-01-27T04:33:58.219Z,4.20
2023-01-27T04:39:00.110Z,4.10
2023-01-27T04:44:02.644Z,4.20
2023-01-27T04:49:05.809Z,4.10
2023-01-27T04:54:07.655Z,4.10
2023-01-27T04:59:12.596Z,4.10
2023-01-27T05:04:14.489Z,4.20
2023-01-27T05:09:16.291Z,4.10
2023-01-27T05:14:18.173Z,4.10
2023-01-27T05:19:19.960Z,4.10
2023-01-27T05:24:21.842Z,4.10
2023-01-27T05:29:23.980Z,4.10
2023-01-27T05:34:25.838Z,4.10
2023-01-27T05:39:27.665Z,4.10
2023-01-27T05:44:29.438Z,4.10
2023-01-27T05:49:31.281Z,4.10
2023-01-27T05:54:33.078Z,4.10
2023-01-27T05:59:34.921Z,4.10
2023-01-27T06:04:36.947Z,4.10
2023-01-27T06:09:38.939Z,4.10
2023-01-27T06:14:40.717Z,4.10
2023-01-27T06:19:42.718Z,4.00
2023-01-27T06:24:44.551Z,4.20
2023-01-27T06:29:46.356Z,4.00
2023-01-27T06:34:48.201Z,3.90
2023-01-27T06:39:50.204Z,3.90
2023-01-27T06:44:52.037Z,3.90
2023-01-27T06:49:54.846Z,3.80
2023-01-27T06:54:56.632Z,3.90
2023-01-27T06:59:58.585Z,3.70
2023-01-27T07:05:00.385Z,3.80
2023-01-27T07:10:02.201Z,3.90
2023-01-27T07:15:09.255Z,3.90
2023-01-27T07:20:13.687Z,3.90
2023-01-27T07:25:15.640Z,3.90
2023-01-27T07:30:17.688Z,3.90
2023-01-27T07:35:19.686Z,3.90
2023-01-27T07:40:21.529Z,3.80
2023-01-27T07:45:23.374Z,3.90
2023-01-27T07:50:25.255Z,3.80
2023-01-27T07:55:27.608Z,3.80
2023-01-27T08:00:30.274Z,3.80
2023-01-27T08:05:34.176Z,3.80
2023-01-27T08:10:35.950Z,3.90
2023-01-27T08:15:37.706Z,3.80
2023-01-27T08:20:39.707Z,3.80
2023-01-27T08:25:41.479Z,3.90
2023-01-27T08:30:43.288Z,3.90
2023-01-27T08:35:45.559Z,4.00
2023-01-27T08:40:48.118Z,3.90
2023-01-27T08:45:52.825Z,3.90
2023-01-27T08:50:56.242Z,3.90
2023-01-27T08:56:02.472Z,3.90
2023-01-27T09:01:06.285Z,4.00
2023-01-27T09:06:10.260Z,3.90
2023-01-27T09:11:17.166Z,4.00
2023-01-27T09:16:18.981Z,4.00
2023-01-27T09:21:21.116Z,4.00
2023-01-27T09:26:22.937Z,4.10
2023-01-27T09:31:25.273Z,4.10
2023-01-27T09:36:28.210Z,4.20
2023-01-27T09:41:38.893Z,4.40
2023-01-27T09:46:40.533Z,4.30
2023-01-27T09:52:21.838Z,4.30
2023-01-27T09:57:41.840Z,4.30
2023-01-27T10:02:49.435Z,4.40
2023-01-27T10:08:04.039Z,4.40
2023-01-27T10:13:33.022Z,4.50
2023-01-27T10:18:50.924Z,4.60
2023-01-27T10:23:58.565Z,4.70
2023-01-27T10:29:10.350Z,4.80
2023-01-27T10:34:36.209Z,4.80
2023-01-27T10:40:11.414Z,4.80
2023-01-27T10:45:25.690Z,4.90
2023-01-27T10:51:06.071Z,5.20
2023-01-27T10:56:29.629Z,5.00
2023-01-27T11:01:37.512Z,5.00
2023-01-27T11:06:42.170Z,5.00
2023-01-27T11:11:45.907Z,5.00
2023-01-27T11:16:52.398Z,5.00
2023-01-27T11:22:06.676Z,4.90
2023-01-27T11:27:55.637Z,5.00
2023-01-27T11:33:04.954Z,5.00
2023-01-27T11:38:21.820Z,5.10
2023-01-27T11:43:26.513Z,5.10
2023-01-27T11:48:41.174Z,5.00
2023-01-27T11:53:45.163Z,5.00
2023-01-27T11:58:50.009Z,5.00
2023-01-27T12:03:57.518Z,5.00
2023-01-27T12:08:59.321Z,5.00
2023-01-27T12:14:05.318Z,5.00
2023-01-27T12:19:21.876Z,5.00
2023-01-27T12:24:32.268Z,4.90
2023-01-27T12:29:57.650Z,4.90
2023-01-27T12:34:59.709Z,5.00
2023-01-27T12:40:16.817Z,5.00
2023-01-27T12:45:20.313Z,4.90
2023-01-27T12:50:26.704Z,4.90
2023-01-27T12:55:30.888Z,4.90
2023-01-27T13:00:34.293Z,4.90
2023-01-27T13:05:42.104Z,4.90
2023-01-27T13:10:57.104Z,4.90
2023-01-27T13:16:30.261Z,4.80
2023-01-27T13:21:38.171Z,4.80
2023-01-27T13:26:41.080Z,4.80
2023-01-27T13:32:17.843Z,4.70
2023-01-27T13:37:32.506Z,4.80
2023-01-27T13:42:43.835Z,4.80
2023-01-27T13:48:03.253Z,4.80
2023-01-27T13:53:06.311Z,4.80
2023-01-27T13:58:18.882Z,4.80
2023-01-27T14:03:42.402Z,4.80
2023-01-27T14:08:56.044Z,4.80
2023-01-27T14:14:21.662Z,4.80
2023-01-27T14:19:37.955Z,4.80
2023-01-27T14:24:56.417Z,4.80
2023-01-27T14:30:17.058Z,4.70
2023-01-27T14:35:37.612Z,4.70
2023-01-27T14:41:10.368Z,4.70
2023-01-27T14:46:18.096Z,4.70
2023-01-27T14:51:33.744Z,4.70
2023-01-27T14:56:50.495Z,4.70
2023-01-27T15:02:02.530Z,4.70
2023-01-27T15:07:17.177Z,4.60
2023-01-27T15:12:36.661Z,4.70
2023-01-27T15:18:06.635Z,4.60
2023-01-27T15:23:35.087Z,4.60
2023-01-27T15:28:42.623Z,4.60
2023-01-27T15:34:03.415Z,4.60
2023-01-27T15:39:11.296Z,4.60
2023-01-27T15:44:17.710Z,5.00
2023-01-27T15:49:27.155Z,4.60
2023-01-27T15:54:33.205Z,4.60
2023-01-27T15:59:58.365Z,4.60
2023-01-27T16:05:19.649Z,4.60
2023-01-27T16:10:25.278Z,4.50
2023-01-27T16:15:36.917Z,4.50
2023-01-27T16:20:59.288Z,4.50
2023-01-27T16:26:14.178Z,4.50
2023-01-27T16:31:23.418Z,4.50
2023-01-27T16:36:29.822Z,4.50
2023-01-27T16:41:39.105Z,4.50
2023-01-27T16:46:47.137Z,4.40
2023-01-27T16:52:01.701Z,4.40
2023-01-27T16:57:05.619Z,4.40
2023-01-27T17:02:19.178Z,4.40
2023-01-27T17:07:21.064Z,4.50
2023-01-27T17:12:34.758Z,4.40
2023-01-27T17:17:39.479Z,4.40
2023-01-27T17:22:43.764Z,4.40
2023-01-27T17:27:46.490Z,4.40
2023-01-27T17:32:50.985Z,4.40
2023-01-27T17:38:04.167Z,4.40
2023-01-27T17:43:35.915Z,4.40
2023-01-27T17:48:47.101Z,4.40
2023-01-27T17:53:49.775Z,4.40
2023-01-27T17:58:55.358Z,4.40
2023-01-27T18:03:58.036Z,4.40
2023-01-27T18:09:14.582Z,4.40
2023-01-27T18:14:20.071Z,4.40
2023-01-27T18:19:24.923Z,4.40
2023-01-27T18:24:28.512Z,4.40
2023-01-27T18:29:38.465Z,4.40
2023-01-27T18:35:21.579Z,4.40
2023-01-27T18:40:33.739Z,4.40
2023-01-27T18:45:35.565Z,4.40
2023-01-27T18:50:46.691Z,4.40
2023-01-27T18:55:48.656Z,4.40
2023-01-27T19:00:53.914Z,4.30
2023-01-27T19:05:55.778Z,4.30
2023-01-27T19:10:57.620Z,4.30
2023-01-27T19:16:00.195Z,4.30
2023-01-27T19:21:03.047Z,4.30
2023-01-27T19:26:10.559Z,4.20
2023-01-27T19:31:12.918Z,4.30
2023-01-27T19:36:23.016Z,4.30
2023-01-27T19:41:24.882Z,4.30
2023-01-27T19:46:27.290Z,4.30
2023-01-27T19:51:29.099Z,4.30
2023-01-27T19:56:32.636Z,4.20
2023-01-27T20:01:34.996Z,4.30
2023-01-27T20:06:36.921Z,4.30
2023-01-27T20:11:41.236Z,4.20
2023-01-27T20:16:43.676Z,4.20
2023-01-27T20:21:46.607Z,4.20
2023-01-27T20:26:48.830Z,4.20
2023-01-27T20:31:51.924Z,4.20
2023-01-27T20:36:53.982Z,4.30
2023-01-27T20:41:55.744Z,4.20
2023-01-27T20:46:57.534Z,4.20
2023-01-27T20:51:59.387Z,4.20
2023-01-27T20:57:01.237Z,4.20
2023-01-27T21:02:03.064Z,4.10
2023-01-27T21:07:04.874Z,4.10
2023-01-27T21:12:06.990Z,4.20
2023-01-27T21:17:08.797Z,4.10
2023-01-27T21:22:10.591Z,4.10
2023-01-27T21:27:12.738Z,4.10
2023-01-27T21:32:14.503Z,4.10
2023-01-27T21:37:16.267Z,4.10
2023-01-27T21:42:18.052Z,4.20
2023-01-27T21:47:20.053Z,4.10
2023-01-27T21:52:23.969Z,4.10
2023-01-27T21:57:25.890Z,4.10
2023-01-27T22:02:29.464Z,4.10
2023-01-27T22:07:34.303Z,4.10
2023-01-27T22:12:36.307Z,4.10
2023-01-27T22:17:38.067Z,4.10
2023-01-27T22:22:40.245Z,4.10
2023-01-27T22:27:43.091Z,4.10
2023-01-27T22:32:46.401Z,4.10
2023-01-27T22:37:49.146Z,4.30
2023-01-27T22:42:51.083Z,4.10
2023-01-27T22:47:52.898Z,4.10
2023-01-27T22:52:54.709Z,4.20
2023-01-27T22:57:56.778Z,4.10
2023-01-27T23:02:58.602Z,4.10
2023-01-27T23:08:00.419Z,4.10
2023-01-27T23:13:02.249Z,4.10
2023-01-27T23:18:11.241Z,4.00
2023-01-27T23:23:15.020Z,4.10
2023-01-27T23:28:18.308Z,4.20
2023-01-27T23:33:20.797Z,4.10
2023-01-27T23:38:32.166Z,4.00
2023-01-27T23:43:35.462Z,4.00
2023-01-27T23:48:37.213Z,4.00
2023-01-27T23:53:39.022Z,4.00
2023-01-27T23:58:40.793Z,4.00
